createdAt,value
2018-11-13T00:00:24.351Z,16.90
2018-11-13T00:02:52.758Z,16.80
2018-11-13T00:05:20.983Z,16.90
2018-11-13T00:07:48.792Z,17.00
2018-11-13T00:10:16.543Z,17.00
2018-11-13T00:12:44.319Z,17.00
2018-11-13T00:15:12.618Z,16.90
2018-11-13T00:17:40.433Z,16.90
2018-11-13T00:20:09.404Z,17.00
2018-11-13T00:22:37.129Z,16.90
2018-11-13T00:25:05.769Z,16.90
2018-11-13T00:27:33.594Z,16.90
2018-11-13T00:30:01.322Z,16.90
2018-11-13T00:32:29.122Z,16.90
2018-11-13T00:34:56.919Z,16.90
2018-11-13T00:37:24.666Z,16.80
2018-11-13T00:39:52.432Z,16.80
2018-11-13T00:42:20.172Z,16.80
2018-11-13T00:44:47.988Z,16.80
2018-11-13T00:47:15.731Z,16.90
2018-11-13T00:49:43.543Z,17.00
2018-11-13T00:52:11.294Z,17.00
2018-11-13T00:54:39.098Z,17.00
2018-11-13T00:57:07.246Z,16.90
2018-11-13T00:59:35.034Z,16.90
2018-11-13T01:02:02.883Z,16.80
2018-11-13T01:04:30.600Z,16.80
2018-11-13T01:06:58.338Z,16.80
2018-11-13T01:09:26.142Z,16.80
2018-11-13T01:11:53.905Z,16.80
2018-11-13T01:14:21.717Z,16.70
2018-11-13T01:16:49.467Z,16.80
2018-11-13T01:19:17.298Z,16.70
2018-11-13T01:21:45.044Z,16.70
2018-11-13T01:24:12.851Z,16.70
2018-11-13T01:26:40.672Z,16.80
2018-11-13T01:29:08.442Z,16.70
2018-11-13T01:31:36.207Z,16.80
2018-11-13T01:34:04.105Z,16.80
2018-11-13T01:36:31.848Z,16.70
2018-11-13T01:38:59.675Z,16.70
2018-11-13T01:41:27.479Z,16.70
2018-11-13T01:43:55.285Z,16.60
2018-11-13T01:46:23.082Z,16.60
2018-11-13T01:48:50.865Z,16.60
2018-11-13T01:51:18.624Z,16.60
2018-11-13T01:53:46.381Z,16.60
2018-11-13T01:56:14.154Z,16.50
2018-11-13T01:58:41.898Z,16.60
2018-11-13T02:01:09.670Z,16.60
2018-11-13T02:03:37.447Z,16.50
2018-11-13T02:06:05.974Z,16.50
2018-11-13T02:08:33.756Z,16.60
2018-11-13T02:11:01.546Z,16.60
2018-11-13T02:13:29.306Z,16.60
2018-11-13T02:15:57.076Z,16.50
2018-11-13T02:18:24.847Z,16.50
2018-11-13T02:20:52.622Z,16.60
2018-11-13T02:23:20.385Z,16.60
2018-11-13T02:25:48.198Z,16.70
2018-11-13T02:28:15.988Z,16.60
2018-11-13T02:30:43.784Z,16.60
2018-11-13T02:33:11.583Z,16.60
2018-11-13T02:35:39.515Z,16.60
2018-11-13T02:38:07.162Z,16.50
2018-11-13T02:40:34.951Z,16.20
2018-11-13T02:43:02.681Z,15.70
2018-11-13T02:45:30.446Z,15.40
2018-11-13T02:47:58.178Z,15.30
2018-11-13T02:50:26.003Z,15.10
2018-11-13T02:52:53.756Z,14.70
2018-11-13T02:55:21.530Z,14.60
2018-11-13T02:57:49.327Z,14.50
2018-11-13T03:00:18.434Z,14.40
2018-11-13T03:02:46.259Z,14.30
2018-11-13T03:05:15.191Z,14.20
2018-11-13T03:07:42.993Z,14.00
2018-11-13T03:10:12.089Z,13.90
2018-11-13T03:12:39.865Z,13.70
2018-11-13T03:15:08.520Z,13.70
2018-11-13T03:17:36.402Z,13.60
2018-11-13T03:20:04.494Z,13.60
2018-11-13T03:22:32.290Z,13.60
2018-11-13T03:25:00.078Z,13.60
2018-11-13T03:27:27.841Z,13.60
2018-11-13T03:29:55.606Z,13.30
2018-11-13T03:32:23.426Z,13.40
2018-11-13T03:34:51.206Z,13.40
2018-11-13T03:37:18.962Z,13.50
2018-11-13T03:39:46.698Z,13.40
2018-11-13T03:42:14.478Z,13.30
2018-11-13T03:44:42.222Z,13.30
2018-11-13T03:47:10.025Z,13.30
2018-11-13T03:49:37.770Z,13.30
2018-11-13T03:52:05.570Z,13.30
2018-11-13T03:54:33.306Z,13.30
2018-11-13T03:57:01.053Z,13.20
2018-11-13T03:59:28.817Z,13.20
2018-11-13T04:01:56.605Z,13.20
2018-11-13T04:04:24.426Z,13.20
2018-11-13T04:06:52.150Z,13.20
2018-11-13T04:09:19.919Z,13.20
2018-11-13T04:11:47.696Z,13.20
2018-11-13T04:14:15.504Z,13.20
2018-11-13T04:16:43.246Z,13.20
2018-11-13T04:19:11.100Z,13.20
2018-11-13T04:21:38.805Z,13.10
2018-11-13T04:24:06.853Z,13.10
2018-11-13T04:26:34.650Z,13.10
2018-11-13T04:29:02.466Z,13.00
2018-11-13T04:31:30.206Z,13.00
2018-11-13T04:33:58.003Z,13.10
2018-11-13T04:36:26.162Z,13.00
2018-11-13T04:38:53.975Z,13.00
2018-11-13T04:41:21.801Z,13.10
2018-11-13T04:43:49.642Z,13.00
2018-11-13T04:46:17.442Z,12.90
2018-11-13T04:48:45.369Z,12.90
2018-11-13T04:51:13.117Z,12.90
2018-11-13T04:53:40.926Z,13.00
2018-11-13T04:56:08.663Z,12.90
2018-11-13T04:58:36.463Z,12.90
2018-11-13T05:01:04.277Z,12.80
2018-11-13T05:03:32.019Z,12.90
2018-11-13T05:05:59.837Z,12.90
2018-11-13T05:08:27.582Z,12.90
2018-11-13T05:10:55.411Z,12.70
2018-11-13T05:13:23.158Z,12.70
2018-11-13T05:15:50.939Z,12.80
2018-11-13T05:18:18.706Z,12.80
2018-11-13T05:20:46.539Z,12.80
2018-11-13T05:23:14.360Z,12.80
2018-11-13T05:25:42.115Z,12.70
2018-11-13T05:28:09.930Z,12.60
2018-11-13T05:30:38.804Z,12.40
2018-11-13T05:33:06.594Z,12.40
2018-11-13T05:35:34.355Z,12.50
2018-11-13T05:38:02.131Z,12.30
2018-11-13T05:40:29.962Z,11.90
2018-11-13T05:42:57.694Z,11.70
2018-11-13T05:45:26.319Z,11.70
2018-11-13T05:47:54.058Z,11.60
2018-11-13T05:50:22.721Z,11.50
2018-11-13T05:52:52.865Z,11.40
2018-11-13T05:55:22.052Z,11.40
2018-11-13T05:57:51.541Z,11.50
2018-11-13T06:00:22.912Z,11.50
2018-11-13T06:02:51.238Z,11.40
2018-11-13T06:05:19.020Z,11.40
2018-11-13T06:07:46.797Z,11.40
2018-11-13T06:13:15.269Z,11.40
2018-11-13T06:15:43.378Z,11.40
2018-11-13T06:18:12.001Z,11.40
2018-11-13T06:20:40.153Z,11.40
2018-11-13T06:23:08.808Z,11.40
2018-11-13T06:25:42.445Z,11.30
2018-11-13T06:28:10.794Z,11.40
2018-11-13T06:30:38.791Z,11.40
2018-11-13T06:33:06.578Z,11.30
2018-11-13T06:35:34.352Z,11.30
2018-11-13T06:38:02.113Z,11.40
2018-11-13T06:40:29.896Z,11.40
2018-11-13T06:42:57.634Z,11.40
2018-11-13T06:45:25.689Z,11.50
2018-11-13T06:47:53.531Z,11.40
2018-11-13T06:50:21.369Z,11.40
2018-11-13T06:52:49.990Z,11.40
2018-11-13T06:55:24.702Z,11.40
2018-11-13T06:57:52.447Z,11.40
2018-11-13T07:00:20.705Z,11.30
2018-11-13T07:02:49.178Z,11.30
2018-11-13T07:05:18.015Z,11.20
2018-11-13T07:07:46.551Z,11.20
2018-11-13T07:10:15.776Z,11.20
2018-11-13T07:12:44.996Z,11.30
2018-11-13T07:15:15.478Z,11.30
2018-11-13T07:17:44.834Z,11.30
2018-11-13T07:20:13.402Z,11.20
2018-11-13T07:22:41.380Z,11.30
2018-11-13T07:25:09.183Z,11.30
2018-11-13T07:27:37.737Z,11.20
2018-11-13T07:30:06.567Z,11.20
2018-11-13T07:32:34.353Z,11.20
2018-11-13T07:35:02.115Z,11.20
2018-11-13T07:37:29.888Z,11.30
2018-11-13T07:39:57.639Z,11.20
2018-11-13T07:42:25.464Z,11.20
2018-11-13T07:44:53.317Z,11.20
2018-11-13T07:47:21.120Z,11.20
2018-11-13T07:49:49.453Z,11.20
2018-11-13T07:52:17.189Z,11.20
2018-11-13T07:54:45.843Z,11.30
2018-11-13T07:57:13.638Z,11.30
2018-11-13T07:59:41.435Z,11.30
2018-11-13T08:02:09.239Z,11.40
2018-11-13T08:04:37.032Z,11.30
2018-11-13T08:07:05.126Z,11.30
2018-11-13T08:09:32.906Z,11.30
2018-11-13T08:12:01.055Z,11.30
2018-11-13T08:14:28.932Z,11.30
2018-11-13T08:16:56.703Z,11.30
2018-11-13T08:19:24.504Z,11.40
2018-11-13T08:21:52.345Z,11.40
2018-11-13T08:24:20.091Z,11.30
2018-11-13T08:26:47.841Z,11.30
2018-11-13T08:29:15.670Z,11.30
2018-11-13T08:31:43.400Z,11.30
2018-11-13T08:34:11.335Z,11.30
2018-11-13T08:36:39.065Z,11.30
2018-11-13T08:39:07.887Z,11.30
2018-11-13T08:41:37.132Z,11.30
2018-11-13T08:44:05.948Z,11.30
2018-11-13T08:46:33.714Z,11.30
2018-11-13T08:49:01.493Z,11.30
2018-11-13T08:51:29.289Z,11.20
2018-11-13T08:53:57.111Z,11.30
2018-11-13T08:56:25.207Z,11.30
2018-11-13T08:58:52.983Z,11.40
2018-11-13T09:01:20.743Z,11.60
2018-11-13T09:03:48.497Z,11.60
2018-11-13T09:06:16.317Z,11.60
2018-11-13T09:08:44.052Z,11.60
2018-11-13T09:11:12.100Z,11.70
2018-11-13T09:13:39.795Z,11.60
2018-11-13T09:16:07.567Z,11.60
2018-11-13T09:18:36.114Z,11.70
2018-11-13T09:21:03.898Z,11.70
2018-11-13T09:23:31.645Z,11.70
2018-11-13T09:26:00.914Z,11.70
2018-11-13T09:28:28.664Z,11.70
2018-11-13T09:30:56.783Z,11.60
2018-11-13T09:33:24.297Z,11.70
2018-11-13T09:35:52.222Z,11.70
2018-11-13T09:38:19.983Z,11.70
2018-11-13T09:40:48.028Z,11.70
2018-11-13T09:43:16.462Z,11.70
2018-11-13T09:48:18.382Z,11.70
2018-11-13T09:50:46.245Z,11.70
2018-11-13T09:53:13.994Z,11.70
2018-11-13T09:55:41.706Z,11.80
2018-11-13T09:58:09.478Z,11.80
2018-11-13T10:00:37.527Z,11.70
2018-11-13T10:03:06.041Z,11.80
2018-11-13T10:05:33.265Z,11.80
2018-11-13T10:08:00.910Z,11.80
2018-11-13T10:10:28.655Z,11.90
2018-11-13T10:12:56.433Z,11.90
2018-11-13T10:15:27.550Z,11.90
2018-11-13T10:17:55.340Z,11.70
2018-11-13T10:20:23.108Z,11.70
2018-11-13T10:22:52.203Z,11.70
2018-11-13T10:25:19.990Z,11.80
2018-11-13T10:27:47.818Z,11.70
2018-11-13T10:30:16.808Z,11.70
2018-11-13T10:32:44.991Z,11.70
2018-11-13T10:35:14.678Z,11.60
2018-11-13T10:37:42.483Z,11.70
2018-11-13T10:40:15.047Z,11.70
2018-11-13T10:42:43.053Z,11.70
2018-11-13T10:45:13.676Z,11.70
2018-11-13T10:47:41.820Z,11.70
2018-11-13T10:50:13.680Z,11.80
2018-11-13T10:52:41.854Z,11.70
2018-11-13T10:55:10.200Z,11.80
2018-11-13T10:57:38.746Z,11.70
2018-11-13T11:00:19.927Z,11.70
2018-11-13T11:02:57.200Z,11.70
2018-11-13T11:05:26.064Z,11.70
2018-11-13T11:07:53.936Z,11.60
2018-11-13T11:10:21.706Z,11.60
2018-11-13T11:12:49.640Z,11.60
2018-11-13T11:15:17.365Z,11.60
2018-11-13T11:17:45.161Z,11.60
2018-11-13T11:20:13.474Z,11.60
2018-11-13T11:22:41.317Z,11.70
2018-11-13T11:25:10.596Z,11.70
2018-11-13T11:27:38.471Z,11.70
2018-11-13T11:30:07.646Z,11.70
2018-11-13T11:32:35.415Z,11.70
2018-11-13T11:35:03.219Z,11.70
2018-11-13T11:37:30.987Z,11.70
2018-11-13T11:40:00.393Z,11.70
2018-11-13T11:42:28.174Z,11.90
2018-11-13T11:44:55.958Z,11.90
2018-11-13T11:47:23.742Z,12.00
2018-11-13T11:49:52.316Z,12.20
2018-11-13T11:52:20.279Z,12.10
2018-11-13T11:54:48.103Z,12.30
2018-11-13T11:57:15.845Z,12.30
2018-11-13T11:59:44.261Z,12.40
2018-11-13T12:02:13.561Z,12.50
2018-11-13T12:04:41.950Z,12.60
2018-11-13T12:07:09.827Z,12.90
2018-11-13T12:09:37.755Z,13.10
2018-11-13T12:12:05.841Z,13.30
2018-11-13T12:14:34.567Z,12.90
2018-11-13T12:17:03.081Z,12.70
2018-11-13T12:19:31.383Z,12.90
2018-11-13T12:21:59.151Z,13.10
2018-11-13T12:24:26.950Z,13.30
2018-11-13T12:26:54.990Z,13.30
2018-11-13T12:29:22.735Z,13.20
2018-11-13T12:31:50.511Z,13.50
2018-11-13T12:34:18.284Z,13.70
2018-11-13T12:36:46.060Z,13.90
2018-11-13T12:39:13.790Z,13.90
2018-11-13T12:41:41.749Z,13.70
2018-11-13T12:44:09.890Z,13.80
2018-11-13T12:46:37.698Z,13.80
2018-11-13T12:49:05.451Z,13.90
2018-11-13T12:51:39.351Z,13.80
2018-11-13T12:54:07.091Z,14.10
2018-11-13T12:56:34.881Z,13.90
2018-11-13T12:59:02.646Z,13.70
2018-11-13T13:01:30.424Z,13.70
2018-11-13T13:03:58.186Z,13.70
2018-11-13T13:06:26.031Z,13.80
2018-11-13T13:08:53.778Z,13.80
2018-11-13T13:11:21.533Z,13.70
2018-11-13T13:13:53.579Z,13.70
2018-11-13T13:16:21.369Z,13.80
2018-11-13T13:18:49.152Z,13.70
2018-11-13T13:21:16.933Z,14.10
2018-11-13T13:23:44.709Z,14.10
2018-11-13T13:26:12.525Z,14.20
2018-11-13T13:28:40.263Z,14.20
2018-11-13T13:31:08.035Z,14.40
2018-11-13T13:33:35.815Z,14.30
2018-11-13T13:36:04.431Z,14.50
2018-11-13T13:38:33.837Z,14.50
2018-11-13T13:41:02.623Z,14.20
2018-11-13T13:43:31.068Z,13.90
2018-11-13T13:45:58.912Z,13.50
2018-11-13T13:48:26.939Z,13.30
2018-11-13T13:50:54.747Z,13.50
2018-11-13T13:53:23.287Z,14.00
2018-11-13T13:55:51.322Z,14.10
2018-11-13T13:58:19.839Z,14.20
2018-11-13T14:00:47.794Z,14.20
2018-11-13T14:03:15.605Z,14.30
2018-11-13T14:05:43.927Z,14.30
2018-11-13T14:08:12.645Z,14.40
2018-11-13T14:10:40.608Z,14.50
2018-11-13T14:13:08.403Z,14.70
2018-11-13T14:15:36.238Z,14.80
2018-11-13T14:18:04.046Z,14.70
2018-11-13T14:20:31.821Z,14.60
2018-11-13T14:22:59.618Z,14.60
2018-11-13T14:25:27.349Z,14.60
2018-11-13T14:27:55.134Z,14.30
2018-11-13T14:30:26.203Z,14.20
2018-11-13T14:32:55.190Z,14.30
2018-11-13T14:35:23.022Z,14.20
2018-11-13T14:37:50.913Z,14.00
2018-11-13T14:40:20.598Z,14.10
2018-11-13T14:42:48.796Z,13.80
2018-11-13T14:45:17.353Z,13.60
2018-11-13T14:47:45.872Z,13.50
2018-11-13T14:50:15.220Z,13.50
2018-11-13T14:52:43.326Z,13.60
2018-11-13T14:55:13.426Z,13.70
2018-11-13T14:57:41.312Z,13.50
2018-11-13T15:00:11.310Z,13.60
2018-11-13T15:02:39.426Z,13.70
2018-11-13T15:05:08.262Z,13.70
2018-11-13T15:07:36.072Z,13.60
2018-11-13T15:10:04.404Z,13.40
2018-11-13T15:12:32.234Z,13.00
2018-11-13T15:15:00.041Z,12.80
2018-11-13T15:17:27.799Z,12.60
2018-11-13T15:19:55.589Z,12.50
2018-11-13T15:22:23.439Z,12.40
2018-11-13T15:24:51.187Z,12.30
2018-11-13T15:27:18.930Z,12.20
2018-11-13T15:29:46.704Z,12.10
2018-11-13T15:32:14.438Z,11.90
2018-11-13T15:34:42.256Z,11.90
2018-11-13T15:37:10.014Z,11.80
2018-11-13T15:39:37.803Z,11.70
2018-11-13T15:42:05.682Z,11.50
2018-11-13T15:44:33.502Z,11.50
2018-11-13T15:47:01.247Z,11.40
2018-11-13T15:49:29.023Z,11.40
2018-11-13T15:51:56.835Z,11.20
2018-11-13T15:54:24.605Z,11.20
2018-11-13T15:56:52.382Z,11.20
2018-11-13T15:59:20.418Z,11.00
2018-11-13T16:01:48.206Z,10.90
2018-11-13T16:04:15.987Z,10.70
2018-11-13T16:06:43.775Z,10.70
2018-11-13T16:09:11.681Z,10.60
2018-11-13T16:11:39.523Z,10.50
2018-11-13T16:14:07.349Z,10.50
2018-11-13T16:16:35.106Z,10.50
2018-11-13T16:19:02.893Z,10.50
2018-11-13T16:21:30.638Z,10.40
2018-11-13T16:23:58.449Z,10.30
2018-11-13T16:26:26.247Z,10.30
2018-11-13T16:28:54.059Z,10.20
2018-11-13T16:31:21.837Z,10.00
2018-11-13T16:33:49.634Z,10.00
2018-11-13T16:36:17.404Z,9.90
2018-11-13T16:38:45.218Z,9.90
2018-11-13T16:41:12.951Z,9.90
2018-11-13T16:43:40.686Z,9.80
2018-11-13T16:46:08.483Z,9.80
2018-11-13T16:48:36.222Z,9.70
2018-11-13T16:51:04.084Z,9.60
2018-11-13T16:53:36.205Z,9.50
2018-11-13T16:56:04.101Z,9.50
2018-11-13T16:58:31.846Z,9.40
2018-11-13T17:00:59.672Z,9.40
2018-11-13T17:03:27.558Z,9.40
2018-11-13T17:05:55.416Z,9.40
2018-11-13T17:08:23.125Z,9.40
2018-11-13T17:10:50.923Z,9.30
2018-11-13T17:13:19.468Z,9.30
2018-11-13T17:15:47.233Z,9.30
2018-11-13T17:18:14.958Z,9.20
2018-11-13T17:20:42.719Z,9.20
2018-11-13T17:23:10.768Z,9.20
2018-11-13T17:25:39.181Z,9.20
2018-11-13T17:28:07.402Z,9.20
2018-11-13T17:30:35.834Z,9.10
2018-11-13T17:33:04.462Z,9.10
2018-11-13T17:35:32.810Z,9.00
2018-11-13T17:38:01.485Z,9.00
2018-11-13T17:40:31.512Z,8.90
2018-11-13T17:43:00.735Z,8.90
2018-11-13T17:45:37.329Z,8.90
2018-11-13T17:48:05.547Z,8.90
2018-11-13T17:50:39.584Z,8.90
2018-11-13T17:53:09.324Z,8.90
2018-11-13T17:55:37.837Z,8.90
2018-11-13T17:58:08.333Z,8.90
2018-11-13T18:00:51.192Z,8.80
2018-11-13T18:03:19.972Z,8.80
2018-11-13T18:05:49.108Z,8.80
2018-11-13T18:08:18.458Z,8.80
2018-11-13T18:10:47.244Z,8.70
2018-11-13T18:13:15.952Z,8.70
2018-11-13T18:15:44.257Z,8.50
2018-11-13T18:18:12.247Z,8.50
2018-11-13T18:20:41.397Z,8.50
2018-11-13T18:23:10.122Z,8.50
2018-11-13T18:25:38.335Z,8.40
2018-11-13T18:28:06.400Z,8.40
2018-11-13T18:30:35.748Z,8.30
2018-11-13T18:33:04.765Z,8.40
2018-11-13T18:35:34.902Z,8.30
2018-11-13T18:38:04.926Z,8.40
2018-11-13T18:40:32.776Z,8.30
2018-11-13T18:43:02.085Z,8.30
2018-11-13T18:45:31.789Z,8.20
2018-11-13T18:48:00.095Z,8.20
2018-11-13T18:50:32.975Z,8.10
2018-11-13T18:53:01.305Z,8.20
2018-11-13T18:55:29.846Z,8.10
2018-11-13T18:58:00.550Z,8.10
2018-11-13T19:00:30.780Z,8.10
2018-11-13T19:03:00.332Z,8.00
2018-11-13T19:05:28.728Z,7.90
2018-11-13T19:07:57.748Z,7.90
2018-11-13T19:10:33.276Z,7.90
2018-11-13T19:13:03.325Z,7.90
2018-11-13T19:15:33.600Z,7.90
2018-11-13T19:18:02.091Z,7.90
2018-11-13T19:20:30.543Z,7.90
2018-11-13T19:22:58.898Z,7.80
2018-11-13T19:25:29.389Z,7.70
2018-11-13T19:27:59.572Z,7.70
2018-11-13T19:30:27.821Z,7.60
2018-11-13T19:32:55.752Z,7.60
2018-11-13T19:35:29.977Z,7.50
2018-11-13T19:37:57.623Z,7.50
2018-11-13T19:40:28.616Z,7.60
2018-11-13T19:42:57.298Z,7.50
2018-11-13T19:45:25.026Z,7.50
2018-11-13T19:47:53.010Z,7.40
2018-11-13T19:50:25.266Z,7.40
2018-11-13T19:52:52.968Z,7.30
2018-11-13T19:55:21.357Z,7.30
2018-11-13T19:57:49.490Z,7.30
2018-11-13T20:00:19.496Z,7.30
2018-11-13T20:02:47.613Z,7.30
2018-11-13T20:05:15.425Z,7.20
2018-11-13T20:07:43.931Z,7.20
2018-11-13T20:10:20.789Z,7.20
2018-11-13T20:12:49.889Z,7.20
2018-11-13T20:15:18.203Z,7.20
2018-11-13T20:17:46.143Z,7.10
2018-11-13T20:20:16.088Z,7.10
2018-11-13T20:22:44.997Z,7.10
2018-11-13T20:25:14.607Z,7.10
2018-11-13T20:27:46.215Z,7.00
2018-11-13T20:30:16.143Z,6.90
2018-11-13T20:32:44.048Z,6.90
2018-11-13T20:35:13.073Z,6.90
2018-11-13T20:37:46.516Z,6.90
2018-11-13T20:40:16.002Z,6.90
2018-11-13T20:42:45.062Z,6.90
2018-11-13T20:45:14.326Z,6.90
2018-11-13T20:47:43.664Z,6.80
2018-11-13T20:50:13.036Z,6.80
2018-11-13T20:52:43.008Z,6.70
2018-11-13T20:55:12.917Z,6.70
2018-11-13T20:57:41.960Z,6.70
2018-11-13T21:00:11.763Z,6.70
2018-11-13T21:02:40.862Z,6.70
2018-11-13T21:05:10.341Z,6.70
2018-11-13T21:07:40.120Z,6.60
2018-11-13T21:10:10.579Z,6.60
2018-11-13T21:12:39.758Z,6.70
2018-11-13T21:15:10.049Z,6.70
2018-11-13T21:17:38.416Z,6.60
2018-11-13T21:20:08.473Z,6.50
2018-11-13T21:22:39.664Z,6.50
2018-11-13T21:25:11.070Z,6.50
2018-11-13T21:27:40.362Z,6.50
2018-11-13T21:30:10.415Z,6.40
2018-11-13T21:32:40.370Z,6.40
2018-11-13T21:35:09.285Z,6.40
2018-11-13T21:37:38.383Z,6.30
2018-11-13T21:40:07.310Z,6.40
2018-11-13T21:42:36.938Z,6.40
2018-11-13T21:45:05.835Z,6.30
2018-11-13T21:47:38.131Z,6.30
2018-11-13T21:50:08.203Z,6.20
2018-11-13T21:52:37.493Z,6.10
2018-11-13T21:55:07.912Z,6.10
2018-11-13T21:57:37.489Z,6.10
2018-11-13T22:00:09.414Z,6.10
2018-11-13T22:02:38.340Z,6.10
2018-11-13T22:05:08.091Z,6.20
2018-11-13T22:07:36.014Z,6.20
2018-11-13T22:10:04.259Z,6.20
2018-11-13T22:12:32.035Z,6.20
2018-11-13T22:14:59.809Z,6.10
2018-11-13T22:17:27.622Z,6.10
2018-11-13T22:19:55.382Z,6.10
2018-11-13T22:22:23.207Z,6.00
2018-11-13T22:24:51.423Z,6.00
2018-11-13T22:27:19.269Z,6.00
2018-11-13T22:29:47.014Z,6.00
2018-11-13T22:32:14.801Z,5.90
2018-11-13T22:34:42.598Z,6.00
2018-11-13T22:37:10.381Z,6.00
2018-11-13T22:39:38.203Z,5.90
2018-11-13T22:42:05.980Z,5.90
2018-11-13T22:44:33.774Z,5.90
2018-11-13T22:47:01.565Z,5.90
2018-11-13T22:49:29.347Z,5.80
2018-11-13T22:51:57.264Z,5.80
2018-11-13T22:54:25.067Z,5.80
2018-11-13T22:56:52.804Z,5.80
2018-11-13T22:59:20.602Z,5.80
2018-11-13T23:01:48.342Z,5.70
2018-11-13T23:04:16.138Z,5.60
2018-11-13T23:06:43.890Z,5.60
2018-11-13T23:09:13.074Z,5.60
2018-11-13T23:11:40.811Z,5.60
2018-11-13T23:14:08.606Z,5.70
2018-11-13T23:16:36.377Z,5.70
2018-11-13T23:19:04.282Z,5.60
2018-11-13T23:21:32.139Z,5.50
2018-11-13T23:23:59.934Z,5.50
2018-11-13T23:26:27.762Z,5.50
2018-11-13T23:28:55.739Z,5.40
2018-11-13T23:31:23.510Z,5.40
2018-11-13T23:33:51.333Z,5.40
2018-11-13T23:36:19.235Z,5.40
2018-11-13T23:38:46.895Z,5.40
2018-11-13T23:41:14.722Z,5.40
2018-11-13T23:43:42.506Z,5.30
2018-11-13T23:46:10.302Z,5.30
2018-11-13T23:48:38.050Z,5.30
2018-11-13T23:51:05.856Z,5.20
2018-11-13T23:53:33.664Z,5.20
2018-11-13T23:56:01.435Z,5.20
2018-11-13T23:58:29.227Z,5.10
